Airfield :
LOGIN :

Register | Disclaimer

   EN    FR    IT 

 










Legend :    VFR   Marginal VFR   IFR   Intensive IFR   Very Intensive IFR
Visi :
Ceiling :
>= 8 km
>= 3000ft
5 to 8 km
1000 to 3000 ft
1500m to 5 km
500 to 1000 ft
800 to 1500m
200 to 500 ft
< 800m
< 200 ft
Symbols :   Thunderstorms  Fog  Heavy snow  Heavy precipitations  Wind > 20 kt
SIGMETs :     Misc.  Thunderstorms  Icing  Turbulence  Mountain Waves  Volcanic Ashes






- Airport Elevation : 656 ft


UUBC - Grabtsevo

CURRENT METAR :
  • 210730Z VRB01MPS CAVOK 01/M01 Q1021 R31/120060 NOSIG RMK QFE749/0999

EXPIRED METARs :
  • 210700Z 00000MPS CAVOK M00/M01 Q1021 R31/120060 NOSIG RMK QFE749/0999
  • 210630Z 13001MPS CAVOK M02/M02 Q1021 R31/120060 NOSIG RMK QFE749/0999
  • 210600Z 00000MPS 9000 NSC M03/M03 Q1021 R31/120060 NOSIG RMK QFE749/0999
  • 210530Z 00000MPS 9000 NSC M04/M05 Q1021 R31/120060 NOSIG RMK QFE749/0999
  • 210500Z 00000MPS 9000 NSC M06/M06 Q1021 R31/120060 TEMPO 1500 BR RMK QFE749/0998

TAF TAF UUBC
Valid from the 21 at 06:00 until the 21 at 15:00 UTC


210447Z 2106/2115 17003G08MPS 9999 BKN017



MET'MAP, your aeronautical weather chart ! - Copyright ORBIFLY December 2007 - Disclaimer

ORBIFLY MET'MAP TEAM :

Programming & Development : Alexandra Zaïnal
Concept & original design : Baudouin d'Aumeries
Assistance for programming : Marc-Olivier Méhu
Technical & hardware support : Manuel Goepfert

Contact : metmap@orbifly.com




SOURCES & CREDITS :

   NOAA